sensor_id;sensor_type;location;lat;lon;timestamp;P1;durP1;ratioP1;P2;durP2;ratioP2
72645;SDS011;60687;53.876;10.674;2023-02-20T00:09:27;9.00;;;2.30;;
72645;SDS011;60687;53.876;10.674;2023-02-20T00:19:36;6.25;;;1.90;;
72645;SDS011;60687;53.876;10.674;2023-02-20T00:29:53;7.67;;;2.13;;
72645;SDS011;60687;53.876;10.674;2023-02-20T00:40:13;8.43;;;1.90;;
72645;SDS011;60687;53.876;10.674;2023-02-20T00:50:37;8.05;;;2.28;;
72645;SDS011;60687;53.876;10.674;2023-02-20T01:00:40;5.93;;;2.23;;
72645;SDS011;60687;53.876;10.674;2023-02-20T01:10:45;7.60;;;2.30;;
72645;SDS011;60687;53.876;10.674;2023-02-20T01:20:50;7.03;;;2.33;;
72645;SDS011;60687;53.876;10.674;2023-02-20T01:31:21;5.90;;;2.42;;
72645;SDS011;60687;53.876;10.674;2023-02-20T01:41:29;7.00;;;2.60;;
72645;SDS011;60687;53.876;10.674;2023-02-20T01:51:41;6.80;;;2.57;;
72645;SDS011;60687;53.876;10.674;2023-02-20T02:02:02;6.93;;;2.65;;
72645;SDS011;60687;53.876;10.674;2023-02-20T02:12:07;6.97;;;2.83;;
72645;SDS011;60687;53.876;10.674;2023-02-20T02:22:16;7.33;;;2.50;;
72645;SDS011;60687;53.876;10.674;2023-02-20T02:32:54;8.85;;;2.65;;
72645;SDS011;60687;53.876;10.674;2023-02-20T02:43:33;6.43;;;2.17;;
72645;SDS011;60687;53.876;10.674;2023-02-20T02:54:13;7.43;;;3.47;;
72645;SDS011;60687;53.876;10.674;2023-02-20T03:04:32;8.52;;;3.47;;
72645;SDS011;60687;53.876;10.674;2023-02-20T03:14:40;8.43;;;3.40;;
72645;SDS011;60687;53.876;10.674;2023-02-20T03:25:14;7.93;;;3.23;;
72645;SDS011;60687;53.876;10.674;2023-02-20T03:35:36;7.57;;;3.10;;
72645;SDS011;60687;53.876;10.674;2023-02-20T03:46:11;7.95;;;3.00;;
72645;SDS011;60687;53.876;10.674;2023-02-20T03:56:19;7.97;;;3.40;;
72645;SDS011;60687;53.876;10.674;2023-02-20T04:17:57;9.52;;;3.42;;
72645;SDS011;60687;53.876;10.674;2023-02-20T04:28:07;9.60;;;3.63;;
72645;SDS011;60687;53.876;10.674;2023-02-20T04:38:21;11.13;;;3.93;;
72645;SDS011;60687;53.876;10.674;2023-02-20T04:59:03;9.88;;;4.18;;
72645;SDS011;60687;53.876;10.674;2023-02-20T05:09:09;12.37;;;5.23;;
72645;SDS011;60687;53.876;10.674;2023-02-20T05:19:12;12.87;;;5.33;;
72645;SDS011;60687;53.876;10.674;2023-02-20T05:41:50;11.57;;;6.23;;
72645;SDS011;60687;53.876;10.674;2023-02-20T05:52:48;13.73;;;6.23;;
72645;SDS011;60687;53.876;10.674;2023-02-20T06:02:52;11.77;;;6.45;;
72645;SDS011;60687;53.876;10.674;2023-02-20T06:12:55;15.10;;;7.80;;
72645;SDS011;60687;53.876;10.674;2023-02-20T06:23:06;13.07;;;6.53;;
72645;SDS011;60687;53.876;10.674;2023-02-20T06:33:12;12.77;;;7.00;;
72645;SDS011;60687;53.876;10.674;2023-02-20T06:56:08;16.00;;;7.87;;
72645;SDS011;60687;53.876;10.674;2023-02-20T07:18:13;30.58;;;9.63;;
72645;SDS011;60687;53.876;10.674;2023-02-20T07:28:30;19.10;;;8.60;;
72645;SDS011;60687;53.876;10.674;2023-02-20T08:14:30;18.47;;;10.40;;
72645;SDS011;60687;53.876;10.674;2023-02-20T08:25:19;17.38;;;10.10;;
72645;SDS011;60687;53.876;10.674;2023-02-20T08:36:35;21.35;;;11.32;;
72645;SDS011;60687;53.876;10.674;2023-02-20T08:47:18;24.20;;;12.60;;
72645;SDS011;60687;53.876;10.674;2023-02-20T09:10:03;21.55;;;11.80;;
72645;SDS011;60687;53.876;10.674;2023-02-20T09:20:06;25.57;;;12.50;;
72645;SDS011;60687;53.876;10.674;2023-02-20T10:16:44;30.02;;;10.43;;
72645;SDS011;60687;53.876;10.674;2023-02-20T13:40:37;14.90;;;4.10;;
72645;SDS011;60687;53.876;10.674;2023-02-20T14:01:52;14.07;;;3.60;;
72645;SDS011;60687;53.876;10.674;2023-02-20T14:12:35;15.25;;;4.30;;
72645;SDS011;60687;53.876;10.674;2023-02-20T14:23:14;11.97;;;3.37;;
72645;SDS011;60687;53.876;10.674;2023-02-20T14:33:28;13.10;;;3.60;;
72645;SDS011;60687;53.876;10.674;2023-02-20T14:43:41;12.00;;;4.13;;
72645;SDS011;60687;53.876;10.674;2023-02-20T14:53:57;14.70;;;3.80;;
72645;SDS011;60687;53.876;10.674;2023-02-20T16:34:55;9.10;;;2.40;;
72645;SDS011;60687;53.876;10.674;2023-02-20T17:08:42;10.43;;;3.40;;
72645;SDS011;60687;53.876;10.674;2023-02-20T17:18:44;9.77;;;2.83;;
72645;SDS011;60687;53.876;10.674;2023-02-20T17:28:57;8.97;;;2.90;;
72645;SDS011;60687;53.876;10.674;2023-02-20T17:40:24;10.32;;;3.10;;
72645;SDS011;60687;53.876;10.674;2023-02-20T17:50:44;10.63;;;3.10;;
72645;SDS011;60687;53.876;10.674;2023-02-20T18:00:48;10.70;;;3.10;;
72645;SDS011;60687;53.876;10.674;2023-02-20T18:11:06;8.67;;;3.30;;
72645;SDS011;60687;53.876;10.674;2023-02-20T18:21:15;11.30;;;4.10;;
72645;SDS011;60687;53.876;10.674;2023-02-20T18:31:39;9.17;;;2.50;;
72645;SDS011;60687;53.876;10.674;2023-02-20T18:41:46;9.93;;;3.50;;
72645;SDS011;60687;53.876;10.674;2023-02-20T18:51:52;11.95;;;3.63;;
72645;SDS011;60687;53.876;10.674;2023-02-20T19:01:54;8.83;;;3.37;;
72645;SDS011;60687;53.876;10.674;2023-02-20T19:12:03;11.53;;;3.53;;
72645;SDS011;60687;53.876;10.674;2023-02-20T19:22:11;10.77;;;3.45;;
72645;SDS011;60687;53.876;10.674;2023-02-20T19:32:16;9.38;;;3.47;;
72645;SDS011;60687;53.876;10.674;2023-02-20T19:42:24;9.77;;;3.10;;
72645;SDS011;60687;53.876;10.674;2023-02-20T19:52:30;8.33;;;3.43;;
72645;SDS011;60687;53.876;10.674;2023-02-20T20:02:33;9.85;;;2.95;;
72645;SDS011;60687;53.876;10.674;2023-02-20T20:23:53;9.13;;;2.63;;
72645;SDS011;60687;53.876;10.674;2023-02-20T20:34:13;9.18;;;2.70;;
72645;SDS011;60687;53.876;10.674;2023-02-20T20:44:36;8.47;;;2.33;;
72645;SDS011;60687;53.876;10.674;2023-02-20T21:05:40;6.70;;;2.28;;
72645;SDS011;60687;53.876;10.674;2023-02-20T21:15:47;8.63;;;2.53;;
72645;SDS011;60687;53.876;10.674;2023-02-20T21:25:52;8.07;;;2.30;;
72645;SDS011;60687;53.876;10.674;2023-02-20T21:35:55;6.40;;;2.10;;
72645;SDS011;60687;53.876;10.674;2023-02-20T21:46:04;7.43;;;2.35;;
72645;SDS011;60687;53.876;10.674;2023-02-20T21:56:07;5.57;;;1.83;;
72645;SDS011;60687;53.876;10.674;2023-02-20T22:06:16;5.83;;;2.07;;
72645;SDS011;60687;53.876;10.674;2023-02-20T22:16:18;5.93;;;1.90;;
72645;SDS011;60687;53.876;10.674;2023-02-20T22:26:42;6.03;;;1.73;;
72645;SDS011;60687;53.876;10.674;2023-02-20T22:37:04;7.93;;;2.13;;
72645;SDS011;60687;53.876;10.674;2023-02-20T22:47:26;6.93;;;2.05;;
72645;SDS011;60687;53.876;10.674;2023-02-20T22:57:48;6.18;;;2.40;;
72645;SDS011;60687;53.876;10.674;2023-02-20T23:08:09;6.97;;;2.47;;
72645;SDS011;60687;53.876;10.674;2023-02-20T23:18:30;8.90;;;2.77;;
72645;SDS011;60687;53.876;10.674;2023-02-20T23:28:51;7.90;;;3.10;;
72645;SDS011;60687;53.876;10.674;2023-02-20T23:39:12;8.13;;;2.83;;
72645;SDS011;60687;53.876;10.674;2023-02-20T23:49:33;8.10;;;2.50;;
72645;SDS011;60687;53.876;10.674;2023-02-20T23:59:54;8.27;;;2.00;;
